Terminal Aerodrome Forecast
Issued by NWS Detroit/Pontiac, MI

Home | Current Version | Previous Version | Text Only | Print | Product List | Glossary On
Versions: 1 2 3 4 5 6 7 8 9 10 11 12 13 14 15 16 17 18 19 20 21 22 23 24 25 26 27 28
000
FTUS43 KDTX 190218 AAA
TAFDTW
TAF AMD
KDTW 190218Z 1902/2006 25009KT 6SM BR OVC008
     FM190600 23007KT 5SM BR OVC006
     FM190900 21005KT 4SM BR OVC004
     FM191400 20006KT P6SM BKN006 OVC015
     FM191700 17005KT P6SM SCT015
     FM192100 10005KT P6SM SCT200=

USA.gov is the U.S. government's official web portal to all federal, state and local government web resources and services.